sensor_id;sensor_type;location;lat;lon;timestamp;P1;durP1;ratioP1;P2;durP2;ratioP2
9722;SDS011;4900;49.306;8.500;2023-05-29T00:01:51;3.72;;;2.85;;
9722;SDS011;4900;49.306;8.500;2023-05-29T00:04:17;4.05;;;2.97;;
9722;SDS011;4900;49.306;8.500;2023-05-29T00:06:42;3.80;;;2.97;;
9722;SDS011;4900;49.306;8.500;2023-05-29T00:09:08;3.47;;;2.90;;
9722;SDS011;4900;49.306;8.500;2023-05-29T00:11:34;3.60;;;2.58;;
9722;SDS011;4900;49.306;8.500;2023-05-29T00:13:59;4.03;;;3.33;;
9722;SDS011;4900;49.306;8.500;2023-05-29T00:16:25;4.40;;;3.30;;
9722;SDS011;4900;49.306;8.500;2023-05-29T00:18:51;6.68;;;5.10;;
9722;SDS011;4900;49.306;8.500;2023-05-29T00:21:17;5.97;;;4.50;;
9722;SDS011;4900;49.306;8.500;2023-05-29T00:23:42;3.75;;;3.10;;
9722;SDS011;4900;49.306;8.500;2023-05-29T00:26:08;4.97;;;4.13;;
9722;SDS011;4900;49.306;8.500;2023-05-29T00:28:34;3.95;;;3.45;;
9722;SDS011;4900;49.306;8.500;2023-05-29T00:31:01;4.20;;;3.28;;
9722;SDS011;4900;49.306;8.500;2023-05-29T00:33:27;4.75;;;3.35;;
9722;SDS011;4900;49.306;8.500;2023-05-29T00:35:52;6.80;;;4.28;;
9722;SDS011;4900;49.306;8.500;2023-05-29T00:38:18;6.15;;;5.07;;
9722;SDS011;4900;49.306;8.500;2023-05-29T00:40:43;5.13;;;3.92;;
9722;SDS011;4900;49.306;8.500;2023-05-29T00:43:09;4.45;;;3.13;;
9722;SDS011;4900;49.306;8.500;2023-05-29T00:45:34;5.70;;;3.53;;
9722;SDS011;4900;49.306;8.500;2023-05-29T00:48:01;3.92;;;3.00;;
9722;SDS011;4900;49.306;8.500;2023-05-29T00:50:28;5.20;;;3.30;;
9722;SDS011;4900;49.306;8.500;2023-05-29T00:52:54;4.32;;;3.35;;
9722;SDS011;4900;49.306;8.500;2023-05-29T00:55:19;4.45;;;3.05;;
9722;SDS011;4900;49.306;8.500;2023-05-29T00:57:45;3.97;;;3.00;;
9722;SDS011;4900;49.306;8.500;2023-05-29T01:00:12;4.40;;;3.08;;
9722;SDS011;4900;49.306;8.500;2023-05-29T01:02:39;3.72;;;2.70;;
9722;SDS011;4900;49.306;8.500;2023-05-29T01:05:09;3.75;;;3.15;;
9722;SDS011;4900;49.306;8.500;2023-05-29T01:07:36;4.35;;;3.20;;
9722;SDS011;4900;49.306;8.500;2023-05-29T01:10:02;5.05;;;2.97;;
9722;SDS011;4900;49.306;8.500;2023-05-29T01:12:40;3.90;;;3.00;;
9722;SDS011;4900;49.306;8.500;2023-05-29T01:26:48;4.70;;;3.45;;
9722;SDS011;4900;49.306;8.500;2023-05-29T01:29:18;4.43;;;3.13;;
9722;SDS011;4900;49.306;8.500;2023-05-29T01:31:46;3.97;;;3.58;;
9722;SDS011;4900;49.306;8.500;2023-05-29T01:34:13;4.10;;;2.70;;
9722;SDS011;4900;49.306;8.500;2023-05-29T01:36:38;5.00;;;3.80;;
9722;SDS011;4900;49.306;8.500;2023-05-29T01:39:04;4.95;;;4.03;;
9722;SDS011;4900;49.306;8.500;2023-05-29T01:41:30;4.03;;;3.20;;
9722;SDS011;4900;49.306;8.500;2023-05-29T01:43:57;3.75;;;3.00;;
9722;SDS011;4900;49.306;8.500;2023-05-29T01:46:24;3.33;;;2.58;;
9722;SDS011;4900;49.306;8.500;2023-05-29T01:48:53;3.92;;;2.90;;
9722;SDS011;4900;49.306;8.500;2023-05-29T01:51:20;4.80;;;2.88;;
9722;SDS011;4900;49.306;8.500;2023-05-29T01:53:46;4.03;;;2.63;;
9722;SDS011;4900;49.306;8.500;2023-05-29T01:56:11;4.15;;;3.08;;
9722;SDS011;4900;49.306;8.500;2023-05-29T01:58:37;3.53;;;2.78;;
9722;SDS011;4900;49.306;8.500;2023-05-29T02:01:05;3.55;;;2.92;;
9722;SDS011;4900;49.306;8.500;2023-05-29T02:03:32;4.35;;;3.00;;
9722;SDS011;4900;49.306;8.500;2023-05-29T02:05:58;4.50;;;3.90;;
9722;SDS011;4900;49.306;8.500;2023-05-29T02:08:24;4.88;;;3.15;;
9722;SDS011;4900;49.306;8.500;2023-05-29T02:10:50;4.05;;;2.90;;
9722;SDS011;4900;49.306;8.500;2023-05-29T02:13:15;4.57;;;2.90;;
9722;SDS011;4900;49.306;8.500;2023-05-29T02:15:41;3.30;;;2.55;;
9722;SDS011;4900;49.306;8.500;2023-05-29T02:18:10;3.78;;;2.70;;
9722;SDS011;4900;49.306;8.500;2023-05-29T02:20:39;3.17;;;2.53;;
9722;SDS011;4900;49.306;8.500;2023-05-29T02:23:05;3.30;;;2.65;;
9722;SDS011;4900;49.306;8.500;2023-05-29T02:25:33;3.25;;;2.50;;
9722;SDS011;4900;49.306;8.500;2023-05-29T02:27:58;3.88;;;2.70;;
9722;SDS011;4900;49.306;8.500;2023-05-29T02:30:24;4.20;;;2.70;;
9722;SDS011;4900;49.306;8.500;2023-05-29T02:32:49;3.50;;;2.60;;
9722;SDS011;4900;49.306;8.500;2023-05-29T02:35:15;3.10;;;2.58;;
9722;SDS011;4900;49.306;8.500;2023-05-29T02:37:43;4.10;;;2.90;;
9722;SDS011;4900;49.306;8.500;2023-05-29T02:40:08;3.00;;;2.40;;
9722;SDS011;4900;49.306;8.500;2023-05-29T02:42:35;2.42;;;2.17;;
9722;SDS011;4900;49.306;8.500;2023-05-29T02:45:01;3.08;;;2.33;;
9722;SDS011;4900;49.306;8.500;2023-05-29T02:47:26;3.40;;;2.55;;
9722;SDS011;4900;49.306;8.500;2023-05-29T02:49:52;3.50;;;2.47;;
9722;SDS011;4900;49.306;8.500;2023-05-29T02:52:17;3.60;;;2.65;;
9722;SDS011;4900;49.306;8.500;2023-05-29T02:54:43;3.38;;;2.85;;
9722;SDS011;4900;49.306;8.500;2023-05-29T02:57:08;3.58;;;2.40;;
9722;SDS011;4900;49.306;8.500;2023-05-29T02:59:34;4.07;;;2.88;;
9722;SDS011;4900;49.306;8.500;2023-05-29T03:02:00;4.40;;;3.10;;
9722;SDS011;4900;49.306;8.500;2023-05-29T03:04:26;3.13;;;2.80;;
9722;SDS011;4900;49.306;8.500;2023-05-29T03:06:52;3.58;;;2.70;;
9722;SDS011;4900;49.306;8.500;2023-05-29T03:09:18;3.20;;;2.70;;
9722;SDS011;4900;49.306;8.500;2023-05-29T03:11:43;4.68;;;2.80;;
9722;SDS011;4900;49.306;8.500;2023-05-29T03:14:09;3.22;;;2.58;;
9722;SDS011;4900;49.306;8.500;2023-05-29T03:16:35;4.57;;;2.70;;
9722;SDS011;4900;49.306;8.500;2023-05-29T03:19:01;4.25;;;3.47;;
9722;SDS011;4900;49.306;8.500;2023-05-29T03:21:27;4.68;;;3.45;;
9722;SDS011;4900;49.306;8.500;2023-05-29T03:23:52;4.07;;;3.40;;
9722;SDS011;4900;49.306;8.500;2023-05-29T03:26:17;3.35;;;3.00;;
9722;SDS011;4900;49.306;8.500;2023-05-29T03:28:43;3.55;;;2.67;;
9722;SDS011;4900;49.306;8.500;2023-05-29T03:31:09;3.42;;;2.63;;
9722;SDS011;4900;49.306;8.500;2023-05-29T03:33:35;3.33;;;2.70;;
9722;SDS011;4900;49.306;8.500;2023-05-29T03:36:01;4.15;;;3.38;;
9722;SDS011;4900;49.306;8.500;2023-05-29T03:38:26;4.20;;;2.83;;
9722;SDS011;4900;49.306;8.500;2023-05-29T03:40:53;3.83;;;2.60;;
9722;SDS011;4900;49.306;8.500;2023-05-29T03:43:19;3.75;;;2.88;;
9722;SDS011;4900;49.306;8.500;2023-05-29T03:45:44;5.43;;;2.67;;
9722;SDS011;4900;49.306;8.500;2023-05-29T03:48:10;4.82;;;2.67;;
9722;SDS011;4900;49.306;8.500;2023-05-29T03:50:35;3.92;;;2.60;;
9722;SDS011;4900;49.306;8.500;2023-05-29T03:53:00;4.53;;;2.75;;
9722;SDS011;4900;49.306;8.500;2023-05-29T03:55:26;3.47;;;2.67;;
9722;SDS011;4900;49.306;8.500;2023-05-29T03:57:52;4.22;;;2.63;;
9722;SDS011;4900;49.306;8.500;2023-05-29T04:00:17;4.22;;;2.97;;
9722;SDS011;4900;49.306;8.500;2023-05-29T04:02:43;4.10;;;2.67;;
9722;SDS011;4900;49.306;8.500;2023-05-29T04:05:08;3.67;;;2.47;;
9722;SDS011;4900;49.306;8.500;2023-05-29T04:07:37;3.67;;;3.00;;
9722;SDS011;4900;49.306;8.500;2023-05-29T04:10:03;5.07;;;3.10;;
9722;SDS011;4900;49.306;8.500;2023-05-29T04:12:29;3.70;;;2.78;;
9722;SDS011;4900;49.306;8.500;2023-05-29T04:14:55;4.50;;;2.80;;
9722;SDS011;4900;49.306;8.500;2023-05-29T04:17:20;3.42;;;2.60;;
9722;SDS011;4900;49.306;8.500;2023-05-29T04:19:46;3.70;;;2.75;;
9722;SDS011;4900;49.306;8.500;2023-05-29T04:22:11;4.18;;;2.80;;
9722;SDS011;4900;49.306;8.500;2023-05-29T04:24:37;3.53;;;2.85;;
9722;SDS011;4900;49.306;8.500;2023-05-29T04:27:02;4.03;;;2.83;;
9722;SDS011;4900;49.306;8.500;2023-05-29T04:29:31;5.15;;;2.80;;
9722;SDS011;4900;49.306;8.500;2023-05-29T04:31:57;3.72;;;2.70;;
9722;SDS011;4900;49.306;8.500;2023-05-29T04:34:23;4.55;;;2.72;;
9722;SDS011;4900;49.306;8.500;2023-05-29T04:36:48;3.72;;;2.78;;
9722;SDS011;4900;49.306;8.500;2023-05-29T04:39:14;4.78;;;3.30;;
9722;SDS011;4900;49.306;8.500;2023-05-29T04:41:40;3.20;;;2.50;;
9722;SDS011;4900;49.306;8.500;2023-05-29T04:44:06;3.42;;;2.80;;
9722;SDS011;4900;49.306;8.500;2023-05-29T04:46:32;4.03;;;2.97;;
9722;SDS011;4900;49.306;8.500;2023-05-29T04:49:00;4.15;;;2.72;;
9722;SDS011;4900;49.306;8.500;2023-05-29T04:51:28;3.80;;;2.60;;
9722;SDS011;4900;49.306;8.500;2023-05-29T04:53:54;3.38;;;2.90;;
9722;SDS011;4900;49.306;8.500;2023-05-29T04:56:20;3.30;;;2.45;;
9722;SDS011;4900;49.306;8.500;2023-05-29T04:58:47;3.08;;;2.50;;
9722;SDS011;4900;49.306;8.500;2023-05-29T05:01:12;3.35;;;2.55;;
9722;SDS011;4900;49.306;8.500;2023-05-29T05:03:42;3.00;;;2.70;;
9722;SDS011;4900;49.306;8.500;2023-05-29T05:06:08;3.55;;;2.78;;
9722;SDS011;4900;49.306;8.500;2023-05-29T05:08:34;3.17;;;2.65;;
9722;SDS011;4900;49.306;8.500;2023-05-29T05:11:00;3.42;;;2.60;;
9722;SDS011;4900;49.306;8.500;2023-05-29T05:13:26;3.45;;;2.47;;
9722;SDS011;4900;49.306;8.500;2023-05-29T05:15:52;2.90;;;2.58;;
9722;SDS011;4900;49.306;8.500;2023-05-29T05:18:18;3.60;;;2.60;;
9722;SDS011;4900;49.306;8.500;2023-05-29T05:20:43;3.25;;;2.60;;
9722;SDS011;4900;49.306;8.500;2023-05-29T05:23:09;4.78;;;2.83;;
9722;SDS011;4900;49.306;8.500;2023-05-29T05:25:35;3.75;;;2.38;;
9722;SDS011;4900;49.306;8.500;2023-05-29T05:28:02;3.78;;;2.88;;
9722;SDS011;4900;49.306;8.500;2023-05-29T05:30:28;3.08;;;2.53;;
9722;SDS011;4900;49.306;8.500;2023-05-29T05:32:53;3.40;;;2.70;;
9722;SDS011;4900;49.306;8.500;2023-05-29T05:35:20;2.90;;;2.30;;
9722;SDS011;4900;49.306;8.500;2023-05-29T05:37:45;2.90;;;2.42;;
9722;SDS011;4900;49.306;8.500;2023-05-29T05:40:11;3.30;;;2.53;;
9722;SDS011;4900;49.306;8.500;2023-05-29T05:42:37;2.92;;;2.42;;
9722;SDS011;4900;49.306;8.500;2023-05-29T05:45:03;5.57;;;2.60;;
9722;SDS011;4900;49.306;8.500;2023-05-29T05:47:29;4.05;;;2.60;;
9722;SDS011;4900;49.306;8.500;2023-05-29T05:49:55;3.47;;;2.60;;
9722;SDS011;4900;49.306;8.500;2023-05-29T05:52:20;3.90;;;2.80;;
9722;SDS011;4900;49.306;8.500;2023-05-29T05:54:46;3.28;;;2.50;;
9722;SDS011;4900;49.306;8.500;2023-05-29T05:57:11;4.45;;;2.80;;
9722;SDS011;4900;49.306;8.500;2023-05-29T05:59:38;3.10;;;2.40;;
9722;SDS011;4900;49.306;8.500;2023-05-29T06:02:04;3.38;;;2.45;;
9722;SDS011;4900;49.306;8.500;2023-05-29T06:04:29;4.20;;;2.60;;
9722;SDS011;4900;49.306;8.500;2023-05-29T06:06:55;3.63;;;2.30;;
9722;SDS011;4900;49.306;8.500;2023-05-29T06:09:21;3.85;;;2.47;;
9722;SDS011;4900;49.306;8.500;2023-05-29T06:11:46;2.70;;;2.20;;
9722;SDS011;4900;49.306;8.500;2023-05-29T06:14:13;4.35;;;2.33;;
9722;SDS011;4900;49.306;8.500;2023-05-29T06:16:39;2.83;;;2.30;;
9722;SDS011;4900;49.306;8.500;2023-05-29T06:19:05;2.85;;;2.33;;
9722;SDS011;4900;49.306;8.500;2023-05-29T06:21:31;3.65;;;2.22;;
9722;SDS011;4900;49.306;8.500;2023-05-29T06:23:56;2.60;;;2.30;;
9722;SDS011;4900;49.306;8.500;2023-05-29T06:26:22;2.90;;;2.40;;
9722;SDS011;4900;49.306;8.500;2023-05-29T06:28:50;4.30;;;2.58;;
9722;SDS011;4900;49.306;8.500;2023-05-29T06:31:15;2.83;;;2.30;;
9722;SDS011;4900;49.306;8.500;2023-05-29T06:33:41;2.63;;;2.28;;
9722;SDS011;4900;49.306;8.500;2023-05-29T06:36:06;2.42;;;2.13;;
9722;SDS011;4900;49.306;8.500;2023-05-29T06:38:32;3.63;;;2.30;;
9722;SDS011;4900;49.306;8.500;2023-05-29T06:40:58;2.42;;;2.17;;
9722;SDS011;4900;49.306;8.500;2023-05-29T06:43:23;3.10;;;2.47;;
9722;SDS011;4900;49.306;8.500;2023-05-29T06:45:48;3.08;;;2.40;;
9722;SDS011;4900;49.306;8.500;2023-05-29T06:48:14;4.53;;;2.40;;
9722;SDS011;4900;49.306;8.500;2023-05-29T06:50:40;2.83;;;2.60;;
9722;SDS011;4900;49.306;8.500;2023-05-29T06:53:05;2.88;;;2.20;;
9722;SDS011;4900;49.306;8.500;2023-05-29T06:55:30;3.65;;;2.67;;
9722;SDS011;4900;49.306;8.500;2023-05-29T06:57:56;3.20;;;2.20;;
9722;SDS011;4900;49.306;8.500;2023-05-29T07:00:21;3.13;;;2.63;;
9722;SDS011;4900;49.306;8.500;2023-05-29T07:02:48;4.15;;;2.53;;
9722;SDS011;4900;49.306;8.500;2023-05-29T07:05:13;3.25;;;2.55;;
9722;SDS011;4900;49.306;8.500;2023-05-29T07:07:39;4.05;;;2.80;;
9722;SDS011;4900;49.306;8.500;2023-05-29T07:10:05;3.13;;;2.15;;
9722;SDS011;4900;49.306;8.500;2023-05-29T07:12:31;2.67;;;2.20;;
9722;SDS011;4900;49.306;8.500;2023-05-29T07:14:56;3.33;;;2.30;;
9722;SDS011;4900;49.306;8.500;2023-05-29T07:17:22;2.47;;;2.17;;
9722;SDS011;4900;49.306;8.500;2023-05-29T07:19:47;2.70;;;2.33;;
9722;SDS011;4900;49.306;8.500;2023-05-29T07:22:14;2.92;;;2.30;;
9722;SDS011;4900;49.306;8.500;2023-05-29T07:24:40;2.88;;;2.38;;
9722;SDS011;4900;49.306;8.500;2023-05-29T07:27:06;3.03;;;2.72;;
9722;SDS011;4900;49.306;8.500;2023-05-29T07:29:31;2.55;;;2.35;;
9722;SDS011;4900;49.306;8.500;2023-05-29T07:31:57;3.03;;;2.60;;
9722;SDS011;4900;49.306;8.500;2023-05-29T07:34:23;3.75;;;2.63;;
9722;SDS011;4900;49.306;8.500;2023-05-29T07:36:58;2.95;;;2.65;;
9722;SDS011;4900;49.306;8.500;2023-05-29T07:39:25;3.33;;;2.38;;
9722;SDS011;4900;49.306;8.500;2023-05-29T07:41:50;3.08;;;2.60;;
9722;SDS011;4900;49.306;8.500;2023-05-29T07:44:16;3.28;;;2.58;;
9722;SDS011;4900;49.306;8.500;2023-05-29T07:46:42;2.97;;;2.67;;
9722;SDS011;4900;49.306;8.500;2023-05-29T07:49:07;4.13;;;2.45;;
9722;SDS011;4900;49.306;8.500;2023-05-29T07:51:32;3.00;;;2.70;;
9722;SDS011;4900;49.306;8.500;2023-05-29T07:53:58;2.63;;;2.40;;
9722;SDS011;4900;49.306;8.500;2023-05-29T07:56:23;3.08;;;2.50;;
9722;SDS011;4900;49.306;8.500;2023-05-29T07:58:50;3.67;;;2.40;;
9722;SDS011;4900;49.306;8.500;2023-05-29T08:01:18;2.90;;;2.50;;
9722;SDS011;4900;49.306;8.500;2023-05-29T08:03:44;3.65;;;2.67;;
9722;SDS011;4900;49.306;8.500;2023-05-29T08:06:09;2.40;;;2.20;;
9722;SDS011;4900;49.306;8.500;2023-05-29T08:08:35;3.50;;;2.78;;
9722;SDS011;4900;49.306;8.500;2023-05-29T08:11:00;2.95;;;2.65;;
9722;SDS011;4900;49.306;8.500;2023-05-29T08:13:26;2.95;;;2.50;;
9722;SDS011;4900;49.306;8.500;2023-05-29T08:15:53;2.90;;;2.55;;
9722;SDS011;4900;49.306;8.500;2023-05-29T08:18:18;3.60;;;2.30;;
9722;SDS011;4900;49.306;8.500;2023-05-29T08:20:44;2.55;;;2.35;;
9722;SDS011;4900;49.306;8.500;2023-05-29T08:23:10;3.03;;;2.55;;
9722;SDS011;4900;49.306;8.500;2023-05-29T08:25:35;3.00;;;2.70;;
9722;SDS011;4900;49.306;8.500;2023-05-29T08:28:01;4.80;;;2.67;;
9722;SDS011;4900;49.306;8.500;2023-05-29T08:30:26;3.00;;;2.70;;
9722;SDS011;4900;49.306;8.500;2023-05-29T08:32:52;3.67;;;2.58;;
9722;SDS011;4900;49.306;8.500;2023-05-29T08:35:17;3.30;;;2.60;;
9722;SDS011;4900;49.306;8.500;2023-05-29T08:37:43;2.65;;;2.45;;
9722;SDS011;4900;49.306;8.500;2023-05-29T08:40:09;5.00;;;3.00;;
9722;SDS011;4900;49.306;8.500;2023-05-29T08:42:44;2.55;;;2.35;;
9722;SDS011;4900;49.306;8.500;2023-05-29T08:45:13;2.92;;;2.40;;
9722;SDS011;4900;49.306;8.500;2023-05-29T08:47:40;4.20;;;2.50;;
9722;SDS011;4900;49.306;8.500;2023-05-29T08:50:06;3.50;;;2.80;;
9722;SDS011;4900;49.306;8.500;2023-05-29T08:52:33;3.05;;;2.63;;
9722;SDS011;4900;49.306;8.500;2023-05-29T08:55:02;3.58;;;2.63;;
9722;SDS011;4900;49.306;8.500;2023-05-29T08:57:29;3.15;;;2.65;;
9722;SDS011;4900;49.306;8.500;2023-05-29T08:59:55;3.72;;;2.67;;
9722;SDS011;4900;49.306;8.500;2023-05-29T09:02:21;2.80;;;2.60;;
9722;SDS011;4900;49.306;8.500;2023-05-29T09:04:46;3.30;;;2.80;;
9722;SDS011;4900;49.306;8.500;2023-05-29T09:07:18;2.67;;;2.47;;
9722;SDS011;4900;49.306;8.500;2023-05-29T09:09:45;3.08;;;2.50;;
9722;SDS011;4900;49.306;8.500;2023-05-29T09:12:11;2.58;;;2.38;;
9722;SDS011;4900;49.306;8.500;2023-05-29T09:14:43;2.60;;;2.40;;
9722;SDS011;4900;49.306;8.500;2023-05-29T09:17:10;2.90;;;2.60;;
9722;SDS011;4900;49.306;8.500;2023-05-29T09:19:37;2.95;;;2.67;;
9722;SDS011;4900;49.306;8.500;2023-05-29T09:22:12;3.70;;;2.50;;
9722;SDS011;4900;49.306;8.500;2023-05-29T09:24:40;3.63;;;2.83;;
9722;SDS011;4900;49.306;8.500;2023-05-29T09:27:06;2.95;;;2.50;;
9722;SDS011;4900;49.306;8.500;2023-05-29T09:32:15;3.53;;;2.65;;
9722;SDS011;4900;49.306;8.500;2023-05-29T09:34:44;4.47;;;2.70;;
9722;SDS011;4900;49.306;8.500;2023-05-29T09:37:11;3.08;;;2.40;;
9722;SDS011;4900;49.306;8.500;2023-05-29T09:39:46;3.20;;;2.90;;
9722;SDS011;4900;49.306;8.500;2023-05-29T09:42:13;3.88;;;2.55;;
9722;SDS011;4900;49.306;8.500;2023-05-29T09:44:40;3.50;;;2.60;;
9722;SDS011;4900;49.306;8.500;2023-05-29T09:47:05;3.33;;;2.70;;
9722;SDS011;4900;49.306;8.500;2023-05-29T09:49:31;4.85;;;2.55;;
9722;SDS011;4900;49.306;8.500;2023-05-29T09:51:57;3.78;;;2.40;;
9722;SDS011;4900;49.306;8.500;2023-05-29T09:54:24;4.63;;;2.70;;
9722;SDS011;4900;49.306;8.500;2023-05-29T09:56:53;2.60;;;2.40;;
9722;SDS011;4900;49.306;8.500;2023-05-29T09:59:21;2.60;;;2.40;;
9722;SDS011;4900;49.306;8.500;2023-05-29T10:01:48;2.75;;;2.40;;
9722;SDS011;4900;49.306;8.500;2023-05-29T10:04:21;3.55;;;2.45;;
9722;SDS011;4900;49.306;8.500;2023-05-29T10:06:49;3.67;;;2.35;;
9722;SDS011;4900;49.306;8.500;2023-05-29T10:09:15;3.00;;;2.70;;
9722;SDS011;4900;49.306;8.500;2023-05-29T10:11:44;2.95;;;2.58;;
9722;SDS011;4900;49.306;8.500;2023-05-29T10:14:19;2.85;;;2.50;;
9722;SDS011;4900;49.306;8.500;2023-05-29T10:16:48;2.67;;;2.47;;
9722;SDS011;4900;49.306;8.500;2023-05-29T10:19:19;3.30;;;2.65;;
9722;SDS011;4900;49.306;8.500;2023-05-29T10:21:49;2.85;;;2.60;;
9722;SDS011;4900;49.306;8.500;2023-05-29T10:24:17;3.88;;;2.83;;
9722;SDS011;4900;49.306;8.500;2023-05-29T10:26:43;3.17;;;2.70;;
9722;SDS011;4900;49.306;8.500;2023-05-29T10:35:14;2.80;;;2.30;;
9722;SDS011;4900;49.306;8.500;2023-05-29T10:37:50;2.90;;;2.50;;
9722;SDS011;4900;49.306;8.500;2023-05-29T10:40:23;2.97;;;2.70;;
9722;SDS011;4900;49.306;8.500;2023-05-29T10:42:51;3.70;;;2.70;;
9722;SDS011;4900;49.306;8.500;2023-05-29T10:48:00;4.05;;;2.67;;
9722;SDS011;4900;49.306;8.500;2023-05-29T10:50:42;2.70;;;2.33;;
9722;SDS011;4900;49.306;8.500;2023-05-29T10:53:15;3.20;;;2.72;;
9722;SDS011;4900;49.306;8.500;2023-05-29T10:55:48;2.63;;;2.42;;
9722;SDS011;4900;49.306;8.500;2023-05-29T11:00:52;2.53;;;2.33;;
9722;SDS011;4900;49.306;8.500;2023-05-29T11:03:20;4.25;;;2.60;;
9722;SDS011;4900;49.306;8.500;2023-05-29T11:05:58;3.28;;;2.60;;
9722;SDS011;4900;49.306;8.500;2023-05-29T11:08:33;3.58;;;2.80;;
9722;SDS011;4900;49.306;8.500;2023-05-29T11:11:12;3.05;;;2.75;;
9722;SDS011;4900;49.306;8.500;2023-05-29T11:13:39;2.97;;;2.70;;
9722;SDS011;4900;49.306;8.500;2023-05-29T11:19:07;3.35;;;2.80;;
9722;SDS011;4900;49.306;8.500;2023-05-29T11:24:32;2.83;;;2.60;;
9722;SDS011;4900;49.306;8.500;2023-05-29T11:27:01;3.38;;;2.72;;
9722;SDS011;4900;49.306;8.500;2023-05-29T11:29:31;3.10;;;2.63;;
9722;SDS011;4900;49.306;8.500;2023-05-29T11:32:03;4.72;;;2.70;;
9722;SDS011;4900;49.306;8.500;2023-05-29T11:34:29;3.25;;;2.75;;
9722;SDS011;4900;49.306;8.500;2023-05-29T11:36:56;3.33;;;2.33;;
9722;SDS011;4900;49.306;8.500;2023-05-29T11:39:23;3.17;;;2.45;;
9722;SDS011;4900;49.306;8.500;2023-05-29T11:41:52;3.30;;;3.00;;
9722;SDS011;4900;49.306;8.500;2023-05-29T11:44:18;5.15;;;2.60;;
9722;SDS011;4900;49.306;8.500;2023-05-29T11:46:44;2.90;;;2.63;;
9722;SDS011;4900;49.306;8.500;2023-05-29T11:49:09;2.72;;;2.50;;
9722;SDS011;4900;49.306;8.500;2023-05-29T11:51:35;2.67;;;2.38;;
9722;SDS011;4900;49.306;8.500;2023-05-29T11:54:01;2.92;;;2.72;;
9722;SDS011;4900;49.306;8.500;2023-05-29T11:56:27;3.13;;;2.35;;
9722;SDS011;4900;49.306;8.500;2023-05-29T11:58:54;3.15;;;2.85;;
9722;SDS011;4900;49.306;8.500;2023-05-29T12:01:22;2.95;;;2.60;;
9722;SDS011;4900;49.306;8.500;2023-05-29T12:03:50;3.40;;;2.60;;
9722;SDS011;4900;49.306;8.500;2023-05-29T12:06:15;4.60;;;2.90;;
9722;SDS011;4900;49.306;8.500;2023-05-29T12:08:41;2.90;;;2.60;;
9722;SDS011;4900;49.306;8.500;2023-05-29T12:11:06;2.88;;;2.58;;
9722;SDS011;4900;49.306;8.500;2023-05-29T12:13:32;2.95;;;2.65;;
9722;SDS011;4900;49.306;8.500;2023-05-29T12:15:59;3.78;;;2.65;;
9722;SDS011;4900;49.306;8.500;2023-05-29T12:18:27;2.42;;;2.22;;
9722;SDS011;4900;49.306;8.500;2023-05-29T12:21:01;3.53;;;2.83;;
9722;SDS011;4900;49.306;8.500;2023-05-29T12:23:27;3.10;;;2.58;;
9722;SDS011;4900;49.306;8.500;2023-05-29T12:25:54;3.20;;;2.47;;
9722;SDS011;4900;49.306;8.500;2023-05-29T12:28:20;2.58;;;2.38;;
9722;SDS011;4900;49.306;8.500;2023-05-29T12:30:46;3.00;;;2.70;;
9722;SDS011;4900;49.306;8.500;2023-05-29T12:33:33;2.55;;;2.35;;
9722;SDS011;4900;49.306;8.500;2023-05-29T12:36:08;2.80;;;2.45;;
9722;SDS011;4900;49.306;8.500;2023-05-29T12:39:08;2.65;;;2.45;;
9722;SDS011;4900;49.306;8.500;2023-05-29T12:41:34;3.30;;;2.40;;
9722;SDS011;4900;49.306;8.500;2023-05-29T12:44:01;3.40;;;2.50;;
9722;SDS011;4900;49.306;8.500;2023-05-29T12:46:34;2.55;;;2.35;;
9722;SDS011;4900;49.306;8.500;2023-05-29T12:49:13;2.45;;;2.25;;
9722;SDS011;4900;49.306;8.500;2023-05-29T12:51:45;2.58;;;2.35;;
9722;SDS011;4900;49.306;8.500;2023-05-29T12:54:11;2.55;;;2.33;;
9722;SDS011;4900;49.306;8.500;2023-05-29T12:56:38;2.88;;;2.58;;
9722;SDS011;4900;49.306;8.500;2023-05-29T12:59:05;2.50;;;2.30;;
9722;SDS011;4900;49.306;8.500;2023-05-29T13:01:32;3.35;;;2.38;;
9722;SDS011;4900;49.306;8.500;2023-05-29T13:03:57;2.50;;;2.30;;
9722;SDS011;4900;49.306;8.500;2023-05-29T13:06:23;2.60;;;2.40;;
9722;SDS011;4900;49.306;8.500;2023-05-29T13:08:48;2.72;;;2.53;;
9722;SDS011;4900;49.306;8.500;2023-05-29T13:11:14;2.78;;;2.53;;
9722;SDS011;4900;49.306;8.500;2023-05-29T13:13:39;4.22;;;2.88;;
9722;SDS011;4900;49.306;8.500;2023-05-29T13:16:05;2.33;;;2.13;;
9722;SDS011;4900;49.306;8.500;2023-05-29T13:18:31;2.40;;;2.20;;
9722;SDS011;4900;49.306;8.500;2023-05-29T13:20:56;2.80;;;2.60;;
9722;SDS011;4900;49.306;8.500;2023-05-29T13:23:22;2.35;;;2.15;;
9722;SDS011;4900;49.306;8.500;2023-05-29T13:25:47;3.40;;;3.10;;
9722;SDS011;4900;49.306;8.500;2023-05-29T13:28:14;2.75;;;2.40;;
9722;SDS011;4900;49.306;8.500;2023-05-29T13:30:40;2.30;;;2.10;;
9722;SDS011;4900;49.306;8.500;2023-05-29T13:33:05;2.70;;;2.35;;
9722;SDS011;4900;49.306;8.500;2023-05-29T13:35:31;2.60;;;2.40;;
9722;SDS011;4900;49.306;8.500;2023-05-29T13:37:56;2.40;;;2.20;;
9722;SDS011;4900;49.306;8.500;2023-05-29T13:40:21;2.55;;;2.20;;
9722;SDS011;4900;49.306;8.500;2023-05-29T13:42:47;2.67;;;2.47;;
9722;SDS011;4900;49.306;8.500;2023-05-29T13:45:13;2.92;;;2.70;;
9722;SDS011;4900;49.306;8.500;2023-05-29T13:47:39;3.15;;;2.85;;
9722;SDS011;4900;49.306;8.500;2023-05-29T13:50:05;2.50;;;2.28;;
9722;SDS011;4900;49.306;8.500;2023-05-29T13:52:31;2.65;;;2.40;;
9722;SDS011;4900;49.306;8.500;2023-05-29T13:54:57;2.40;;;2.20;;
9722;SDS011;4900;49.306;8.500;2023-05-29T13:57:25;2.90;;;2.60;;
9722;SDS011;4900;49.306;8.500;2023-05-29T13:59:50;2.60;;;2.40;;
9722;SDS011;4900;49.306;8.500;2023-05-29T14:02:16;2.70;;;2.50;;
9722;SDS011;4900;49.306;8.500;2023-05-29T14:04:41;2.50;;;2.20;;
9722;SDS011;4900;49.306;8.500;2023-05-29T14:07:08;2.53;;;2.33;;
9722;SDS011;4900;49.306;8.500;2023-05-29T14:09:33;2.58;;;2.25;;
9722;SDS011;4900;49.306;8.500;2023-05-29T14:11:59;2.40;;;2.15;;
9722;SDS011;4900;49.306;8.500;2023-05-29T14:14:25;2.63;;;2.20;;
9722;SDS011;4900;49.306;8.500;2023-05-29T14:16:51;2.50;;;2.30;;
9722;SDS011;4900;49.306;8.500;2023-05-29T14:19:18;3.60;;;2.50;;
9722;SDS011;4900;49.306;8.500;2023-05-29T14:21:44;2.10;;;2.00;;
9722;SDS011;4900;49.306;8.500;2023-05-29T14:24:10;2.38;;;2.17;;
9722;SDS011;4900;49.306;8.500;2023-05-29T14:26:35;2.33;;;2.13;;
9722;SDS011;4900;49.306;8.500;2023-05-29T14:29:02;2.20;;;2.00;;
9722;SDS011;4900;49.306;8.500;2023-05-29T14:31:28;2.40;;;2.20;;
9722;SDS011;4900;49.306;8.500;2023-05-29T14:33:53;2.35;;;2.15;;
9722;SDS011;4900;49.306;8.500;2023-05-29T14:36:18;2.20;;;2.00;;
9722;SDS011;4900;49.306;8.500;2023-05-29T14:38:44;2.60;;;2.10;;
9722;SDS011;4900;49.306;8.500;2023-05-29T14:41:11;2.50;;;2.05;;
9722;SDS011;4900;49.306;8.500;2023-05-29T14:43:40;2.15;;;1.95;;
9722;SDS011;4900;49.306;8.500;2023-05-29T14:46:06;2.33;;;2.13;;
9722;SDS011;4900;49.306;8.500;2023-05-29T14:48:32;2.30;;;2.10;;
9722;SDS011;4900;49.306;8.500;2023-05-29T14:50:57;2.33;;;2.13;;
9722;SDS011;4900;49.306;8.500;2023-05-29T14:53:23;2.40;;;2.20;;
9722;SDS011;4900;49.306;8.500;2023-05-29T14:55:49;2.60;;;2.40;;
9722;SDS011;4900;49.306;8.500;2023-05-29T14:58:14;2.30;;;2.10;;
9722;SDS011;4900;49.306;8.500;2023-05-29T15:00:40;2.50;;;2.30;;
9722;SDS011;4900;49.306;8.500;2023-05-29T15:03:05;2.33;;;2.13;;
9722;SDS011;4900;49.306;8.500;2023-05-29T15:05:31;2.55;;;2.30;;
9722;SDS011;4900;49.306;8.500;2023-05-29T15:07:56;2.30;;;2.10;;
9722;SDS011;4900;49.306;8.500;2023-05-29T15:10:23;2.50;;;2.30;;
9722;SDS011;4900;49.306;8.500;2023-05-29T15:12:49;2.20;;;2.00;;
9722;SDS011;4900;49.306;8.500;2023-05-29T15:15:21;3.13;;;2.30;;
9722;SDS011;4900;49.306;8.500;2023-05-29T15:17:51;2.17;;;1.98;;
9722;SDS011;4900;49.306;8.500;2023-05-29T15:20:23;2.60;;;2.40;;
9722;SDS011;4900;49.306;8.500;2023-05-29T15:22:49;2.33;;;2.13;;
9722;SDS011;4900;49.306;8.500;2023-05-29T15:25:16;2.13;;;2.00;;
9722;SDS011;4900;49.306;8.500;2023-05-29T15:27:42;2.20;;;2.00;;
9722;SDS011;4900;49.306;8.500;2023-05-29T15:30:12;2.28;;;2.08;;
9722;SDS011;4900;49.306;8.500;2023-05-29T15:32:39;2.33;;;2.13;;
9722;SDS011;4900;49.306;8.500;2023-05-29T15:35:06;2.38;;;2.17;;
9722;SDS011;4900;49.306;8.500;2023-05-29T15:37:33;2.55;;;2.30;;
9722;SDS011;4900;49.306;8.500;2023-05-29T15:39:58;2.60;;;2.15;;
9722;SDS011;4900;49.306;8.500;2023-05-29T15:42:24;2.40;;;2.20;;
9722;SDS011;4900;49.306;8.500;2023-05-29T15:44:49;1.80;;;1.70;;